TAF KMDW
AMD KMDW 270916Z 2709/2812 17006KT P6SM SCT050 OVC100 FM271600 21008KT P6SM VCSH SCT040 OVC080 FM272100 29010KT P6SM SCT040 BKN100 FM280300 31013G20KT P6SM SCT025=
METAR KMDW
KMDW 261953Z 00000KT 10SM BKN090 BKN130 BKN250 M01/M15 A3015 RMK AO2 SLP222 T10111150 ?
KMDW 261853Z 28006KT 10SM FEW030 BKN095 OVC130 M02/M15 A3018 RMK AO2 SLP233 T10171150 ?
KMDW 261753Z 28007KT 10SM FEW030 BKN100 OVC130 M03/M14 A3021 RMK AO2 SLP245 T10281144 11022 21072 58018 ?
KMDW 261653Z 28003KT 10SM FEW030 SCT110 BKN130 BKN200 OVC250 M03/M14 A3023 RMK AO2 SLP253 T10331144 ?
KMDW 261553Z 26005KT 10SM FEW030 BKN140 BKN200 OVC250 M04/M14 A3025 RMK AO2 SLP260 T10441139 ?
WC KMDW
WS KMDW
WV KMDW